sensor_id;sensor_type;location;lat;lon;timestamp;pressure;altitude;pressure_sealevel;temperature;humidity
54546;BME280;40444;45.184;9.850;2023-04-25T00:00:27;100055.72;;;13.19;100.00
54546;BME280;40444;45.184;9.850;2023-04-25T00:02:56;100058.09;;;13.22;100.00
54546;BME280;40444;45.184;9.850;2023-04-25T00:05:28;100060.41;;;13.16;100.00
54546;BME280;40444;45.184;9.850;2023-04-25T00:07:57;100063.00;;;13.26;100.00
54546;BME280;40444;45.184;9.850;2023-04-25T00:10:31;100067.69;;;13.24;100.00
54546;BME280;40444;45.184;9.850;2023-04-25T00:12:59;100057.75;;;13.25;100.00
54546;BME280;40444;45.184;9.850;2023-04-25T00:15:30;100067.34;;;13.27;100.00
54546;BME280;40444;45.184;9.850;2023-04-25T00:17:58;100067.50;;;13.18;100.00
54546;BME280;40444;45.184;9.850;2023-04-25T00:20:27;100069.00;;;13.20;100.00
54546;BME280;40444;45.184;9.850;2023-04-25T00:22:55;100075.88;;;13.14;100.00
54546;BME280;40444;45.184;9.850;2023-04-25T00:25:23;100076.88;;;13.05;100.00
54546;BME280;40444;45.184;9.850;2023-04-25T00:27:51;100082.75;;;12.93;100.00
54546;BME280;40444;45.184;9.850;2023-04-25T00:30:19;100080.91;;;13.01;100.00
54546;BME280;40444;45.184;9.850;2023-04-25T00:32:48;100075.03;;;13.06;100.00
54546;BME280;40444;45.184;9.850;2023-04-25T00:35:16;100077.53;;;13.07;100.00
54546;BME280;40444;45.184;9.850;2023-04-25T00:37:45;100074.72;;;13.09;100.00
54546;BME280;40444;45.184;9.850;2023-04-25T00:40:13;100071.31;;;12.99;100.00
54546;BME280;40444;45.184;9.850;2023-04-25T00:42:42;100074.19;;;12.97;100.00
54546;BME280;40444;45.184;9.850;2023-04-25T00:45:13;100069.50;;;12.99;100.00
54546;BME280;40444;45.184;9.850;2023-04-25T00:47:42;100072.84;;;13.01;100.00
54546;BME280;40444;45.184;9.850;2023-04-25T00:50:11;100063.59;;;12.96;100.00
54546;BME280;40444;45.184;9.850;2023-04-25T00:52:42;100061.44;;;12.99;100.00
54546;BME280;40444;45.184;9.850;2023-04-25T00:55:12;100060.56;;;12.99;100.00
54546;BME280;40444;45.184;9.850;2023-04-25T00:57:40;100054.19;;;12.92;100.00
54546;BME280;40444;45.184;9.850;2023-04-25T01:00:09;100055.19;;;12.90;100.00
54546;BME280;40444;45.184;9.850;2023-04-25T01:02:40;100056.50;;;12.78;100.00
54546;BME280;40444;45.184;9.850;2023-04-25T01:05:08;100054.66;;;12.79;100.00
54546;BME280;40444;45.184;9.850;2023-04-25T01:07:37;100051.63;;;12.74;100.00
54546;BME280;40444;45.184;9.850;2023-04-25T01:10:05;100045.41;;;12.73;100.00
54546;BME280;40444;45.184;9.850;2023-04-25T01:12:34;100050.78;;;12.73;100.00
54546;BME280;40444;45.184;9.850;2023-04-25T01:15:03;100053.28;;;12.67;100.00
54546;BME280;40444;45.184;9.850;2023-04-25T01:17:34;100053.28;;;12.67;100.00
54546;BME280;40444;45.184;9.850;2023-04-25T01:20:04;100039.19;;;12.64;100.00
54546;BME280;40444;45.184;9.850;2023-04-25T01:22:33;100039.19;;;12.64;100.00
54546;BME280;40444;45.184;9.850;2023-04-25T01:25:02;100029.91;;;12.59;100.00
54546;BME280;40444;45.184;9.850;2023-04-25T01:27:31;100039.63;;;12.44;100.00
54546;BME280;40444;45.184;9.850;2023-04-25T01:30:00;100034.72;;;12.39;100.00
54546;BME280;40444;45.184;9.850;2023-04-25T01:32:30;100030.88;;;12.42;100.00
54546;BME280;40444;45.184;9.850;2023-04-25T01:35:08;100026.66;;;12.39;100.00
54546;BME280;40444;45.184;9.850;2023-04-25T01:37:41;100030.81;;;12.25;100.00
54546;BME280;40444;45.184;9.850;2023-04-25T01:40:13;100032.16;;;12.21;100.00
54546;BME280;40444;45.184;9.850;2023-04-25T01:42:42;100027.56;;;12.13;100.00
54546;BME280;40444;45.184;9.850;2023-04-25T01:45:12;100026.22;;;12.09;100.00
54546;BME280;40444;45.184;9.850;2023-04-25T01:47:40;100037.78;;;12.02;100.00
54546;BME280;40444;45.184;9.850;2023-04-25T01:50:10;100048.34;;;12.03;100.00
54546;BME280;40444;45.184;9.850;2023-04-25T01:52:39;100046.84;;;12.09;100.00
54546;BME280;40444;45.184;9.850;2023-04-25T01:55:08;100038.84;;;12.17;100.00
54546;BME280;40444;45.184;9.850;2023-04-25T01:57:40;100042.22;;;12.19;100.00
54546;BME280;40444;45.184;9.850;2023-04-25T02:00:09;100048.78;;;12.25;100.00
54546;BME280;40444;45.184;9.850;2023-04-25T02:02:43;100049.78;;;12.24;100.00
54546;BME280;40444;45.184;9.850;2023-04-25T02:05:25;100045.28;;;12.32;100.00
54546;BME280;40444;45.184;9.850;2023-04-25T02:07:53;100047.16;;;12.40;100.00
54546;BME280;40444;45.184;9.850;2023-04-25T02:10:29;100048.34;;;12.37;100.00
54546;BME280;40444;45.184;9.850;2023-04-25T02:13:08;100047.84;;;12.42;100.00
54546;BME280;40444;45.184;9.850;2023-04-25T02:15:55;100048.69;;;12.43;100.00
54546;BME280;40444;45.184;9.850;2023-04-25T02:18:24;100042.28;;;12.44;100.00
54546;BME280;40444;45.184;9.850;2023-04-25T02:20:54;100037.25;;;12.40;100.00
54546;BME280;40444;45.184;9.850;2023-04-25T02:23:22;100035.38;;;12.41;100.00
54546;BME280;40444;45.184;9.850;2023-04-25T02:25:51;100039.56;;;12.35;100.00
54546;BME280;40444;45.184;9.850;2023-04-25T02:28:20;100039.78;;;12.42;100.00
54546;BME280;40444;45.184;9.850;2023-04-25T02:30:49;100038.91;;;12.33;100.00
54546;BME280;40444;45.184;9.850;2023-04-25T02:33:17;100033.69;;;12.32;100.00
54546;BME280;40444;45.184;9.850;2023-04-25T02:35:45;100042.25;;;12.35;100.00
54546;BME280;40444;45.184;9.850;2023-04-25T02:38:14;100039.25;;;12.38;100.00
54546;BME280;40444;45.184;9.850;2023-04-25T02:40:42;100043.78;;;12.38;100.00
54546;BME280;40444;45.184;9.850;2023-04-25T02:43:11;100040.41;;;12.36;100.00
54546;BME280;40444;45.184;9.850;2023-04-25T02:45:39;100045.13;;;12.34;100.00
54546;BME280;40444;45.184;9.850;2023-04-25T02:48:07;100033.19;;;12.28;100.00
54546;BME280;40444;45.184;9.850;2023-04-25T02:50:35;100029.97;;;12.25;100.00
54546;BME280;40444;45.184;9.850;2023-04-25T02:53:04;100036.50;;;12.22;100.00
54546;BME280;40444;45.184;9.850;2023-04-25T02:55:37;100031.13;;;12.22;100.00
54546;BME280;40444;45.184;9.850;2023-04-25T02:58:06;100032.66;;;12.25;100.00
54546;BME280;40444;45.184;9.850;2023-04-25T03:00:44;100035.34;;;12.25;100.00
54546;BME280;40444;45.184;9.850;2023-04-25T03:03:13;100031.84;;;12.24;100.00
54546;BME280;40444;45.184;9.850;2023-04-25T03:05:41;100022.06;;;12.23;100.00
54546;BME280;40444;45.184;9.850;2023-04-25T03:08:10;100023.78;;;12.24;100.00
54546;BME280;40444;45.184;9.850;2023-04-25T03:10:38;100023.91;;;12.23;100.00
54546;BME280;40444;45.184;9.850;2023-04-25T03:13:09;100020.75;;;12.19;100.00
54546;BME280;40444;45.184;9.850;2023-04-25T03:15:38;100018.38;;;12.16;100.00
54546;BME280;40444;45.184;9.850;2023-04-25T03:18:07;100012.47;;;12.12;100.00
54546;BME280;40444;45.184;9.850;2023-04-25T03:20:35;100007.41;;;12.09;100.00
54546;BME280;40444;45.184;9.850;2023-04-25T03:23:03;100009.59;;;12.06;100.00
54546;BME280;40444;45.184;9.850;2023-04-25T03:25:32;100013.59;;;12.02;100.00
54546;BME280;40444;45.184;9.850;2023-04-25T03:28:00;100011.25;;;11.99;100.00
54546;BME280;40444;45.184;9.850;2023-04-25T03:30:29;100016.59;;;11.99;100.00
54546;BME280;40444;45.184;9.850;2023-04-25T03:32:58;100021.81;;;12.00;100.00
54546;BME280;40444;45.184;9.850;2023-04-25T03:35:27;100018.81;;;12.03;100.00
54546;BME280;40444;45.184;9.850;2023-04-25T03:37:55;100030.22;;;12.05;100.00
54546;BME280;40444;45.184;9.850;2023-04-25T03:40:28;100026.38;;;12.08;100.00
54546;BME280;40444;45.184;9.850;2023-04-25T03:43:23;100033.28;;;12.10;100.00
54546;BME280;40444;45.184;9.850;2023-04-25T03:45:57;100042.19;;;12.11;100.00
54546;BME280;40444;45.184;9.850;2023-04-25T03:48:26;100051.91;;;12.12;100.00
54546;BME280;40444;45.184;9.850;2023-04-25T03:50:54;100056.97;;;12.15;100.00
54546;BME280;40444;45.184;9.850;2023-04-25T03:53:23;100060.13;;;12.10;100.00
54546;BME280;40444;45.184;9.850;2023-04-25T03:56:10;100058.72;;;11.98;100.00
54546;BME280;40444;45.184;9.850;2023-04-25T03:58:39;100071.09;;;11.91;100.00
54546;BME280;40444;45.184;9.850;2023-04-25T04:01:08;100072.41;;;11.87;100.00
54546;BME280;40444;45.184;9.850;2023-04-25T04:03:39;100067.22;;;11.85;100.00
54546;BME280;40444;45.184;9.850;2023-04-25T04:06:09;100065.97;;;11.80;100.00
54546;BME280;40444;45.184;9.850;2023-04-25T04:08:44;100073.97;;;11.72;100.00
54546;BME280;40444;45.184;9.850;2023-04-25T04:11:13;100071.94;;;11.66;100.00
54546;BME280;40444;45.184;9.850;2023-04-25T04:13:41;100070.84;;;11.58;100.00
54546;BME280;40444;45.184;9.850;2023-04-25T04:16:10;100069.78;;;11.51;100.00
54546;BME280;40444;45.184;9.850;2023-04-25T04:18:39;100060.53;;;11.46;100.00
54546;BME280;40444;45.184;9.850;2023-04-25T04:21:08;100063.38;;;11.44;100.00
54546;BME280;40444;45.184;9.850;2023-04-25T04:23:39;100058.47;;;11.39;100.00
54546;BME280;40444;45.184;9.850;2023-04-25T04:26:09;100055.94;;;11.38;100.00
54546;BME280;40444;45.184;9.850;2023-04-25T04:28:52;100067.97;;;11.34;100.00
54546;BME280;40444;45.184;9.850;2023-04-25T04:31:35;100069.16;;;11.31;100.00
54546;BME280;40444;45.184;9.850;2023-04-25T04:34:04;100077.50;;;11.28;100.00
54546;BME280;40444;45.184;9.850;2023-04-25T04:36:34;100090.22;;;11.26;100.00
54546;BME280;40444;45.184;9.850;2023-04-25T04:39:02;100091.22;;;11.25;100.00
54546;BME280;40444;45.184;9.850;2023-04-25T04:41:38;100095.22;;;11.21;100.00
54546;BME280;40444;45.184;9.850;2023-04-25T04:44:29;100094.50;;;11.19;100.00
